sensor_id;sensor_type;location;lat;lon;timestamp;P1;durP1;ratioP1;P2;durP2;ratioP2
45007;SDS011;30743;52.008;5.644;2022-09-09T00:06:55;2.33;;;1.50;;
45007;SDS011;30743;52.008;5.644;2022-09-09T00:09:45;3.42;;;1.60;;
45007;SDS011;30743;52.008;5.644;2022-09-09T00:12:31;2.92;;;1.95;;
45007;SDS011;30743;52.008;5.644;2022-09-09T00:15:11;3.95;;;2.15;;
45007;SDS011;30743;52.008;5.644;2022-09-09T00:17:43;2.60;;;1.60;;
45007;SDS011;30743;52.008;5.644;2022-09-09T00:22:53;3.15;;;2.20;;
45007;SDS011;30743;52.008;5.644;2022-09-09T00:25:37;3.35;;;2.28;;
45007;SDS011;30743;52.008;5.644;2022-09-09T00:28:34;3.28;;;2.38;;
45007;SDS011;30743;52.008;5.644;2022-09-09T00:31:14;3.00;;;2.00;;
45007;SDS011;30743;52.008;5.644;2022-09-09T00:33:46;2.65;;;1.80;;
45007;SDS011;30743;52.008;5.644;2022-09-09T00:36:15;2.83;;;1.90;;
45007;SDS011;30743;52.008;5.644;2022-09-09T00:38:55;3.95;;;1.90;;
45007;SDS011;30743;52.008;5.644;2022-09-09T00:44:15;3.28;;;2.03;;
45007;SDS011;30743;52.008;5.644;2022-09-09T00:47:04;2.50;;;1.67;;
45007;SDS011;30743;52.008;5.644;2022-09-09T00:52:39;3.30;;;1.75;;
45007;SDS011;30743;52.008;5.644;2022-09-09T00:55:34;2.40;;;1.65;;
45007;SDS011;30743;52.008;5.644;2022-09-09T00:58:09;3.55;;;1.70;;
45007;SDS011;30743;52.008;5.644;2022-09-09T01:00:39;4.45;;;2.15;;
45007;SDS011;30743;52.008;5.644;2022-09-09T01:03:22;2.63;;;1.77;;
45007;SDS011;30743;52.008;5.644;2022-09-09T01:11:36;2.45;;;1.60;;
45007;SDS011;30743;52.008;5.644;2022-09-09T01:17:00;3.25;;;1.98;;
45007;SDS011;30743;52.008;5.644;2022-09-09T01:22:26;3.45;;;2.00;;
45007;SDS011;30743;52.008;5.644;2022-09-09T01:25:11;2.92;;;1.63;;
45007;SDS011;30743;52.008;5.644;2022-09-09T01:27:42;2.75;;;1.55;;
45007;SDS011;30743;52.008;5.644;2022-09-09T01:30:13;2.65;;;1.45;;
45007;SDS011;30743;52.008;5.644;2022-09-09T01:38:01;4.47;;;1.77;;
45007;SDS011;30743;52.008;5.644;2022-09-09T01:40:27;3.08;;;1.85;;
45007;SDS011;30743;52.008;5.644;2022-09-09T01:42:52;3.22;;;1.80;;
45007;SDS011;30743;52.008;5.644;2022-09-09T01:45:20;2.58;;;1.48;;
45007;SDS011;30743;52.008;5.644;2022-09-09T01:47:46;2.42;;;1.70;;
45007;SDS011;30743;52.008;5.644;2022-09-09T01:50:14;5.43;;;1.85;;
45007;SDS011;30743;52.008;5.644;2022-09-09T01:52:41;2.58;;;1.80;;
45007;SDS011;30743;52.008;5.644;2022-09-09T01:55:08;2.17;;;1.80;;
45007;SDS011;30743;52.008;5.644;2022-09-09T01:57:56;3.78;;;2.22;;
45007;SDS011;30743;52.008;5.644;2022-09-09T02:00:35;2.92;;;2.00;;
45007;SDS011;30743;52.008;5.644;2022-09-09T02:03:27;2.25;;;1.92;;
45007;SDS011;30743;52.008;5.644;2022-09-09T02:08:45;3.22;;;1.80;;
45007;SDS011;30743;52.008;5.644;2022-09-09T02:16:18;2.83;;;1.90;;
45007;SDS011;30743;52.008;5.644;2022-09-09T02:19:02;2.88;;;1.92;;
45007;SDS011;30743;52.008;5.644;2022-09-09T02:21:39;2.45;;;1.85;;
45007;SDS011;30743;52.008;5.644;2022-09-09T02:24:10;3.00;;;1.80;;
45007;SDS011;30743;52.008;5.644;2022-09-09T02:26:39;2.42;;;1.75;;
45007;SDS011;30743;52.008;5.644;2022-09-09T02:29:15;3.03;;;1.70;;
45007;SDS011;30743;52.008;5.644;2022-09-09T02:31:50;3.20;;;1.75;;
45007;SDS011;30743;52.008;5.644;2022-09-09T02:34:21;2.00;;;1.50;;
45007;SDS011;30743;52.008;5.644;2022-09-09T02:36:49;4.00;;;1.52;;
45007;SDS011;30743;52.008;5.644;2022-09-09T02:39:17;2.28;;;1.30;;
45007;SDS011;30743;52.008;5.644;2022-09-09T02:41:43;2.67;;;1.55;;
45007;SDS011;30743;52.008;5.644;2022-09-09T02:44:13;2.38;;;1.63;;
45007;SDS011;30743;52.008;5.644;2022-09-09T02:55:21;3.90;;;1.42;;
45007;SDS011;30743;52.008;5.644;2022-09-09T02:58:10;2.70;;;1.70;;
45007;SDS011;30743;52.008;5.644;2022-09-09T03:00:38;3.42;;;1.70;;
45007;SDS011;30743;52.008;5.644;2022-09-09T03:03:05;2.05;;;1.38;;
45007;SDS011;30743;52.008;5.644;2022-09-09T03:05:33;3.40;;;1.80;;
45007;SDS011;30743;52.008;5.644;2022-09-09T03:07:59;2.92;;;1.30;;
45007;SDS011;30743;52.008;5.644;2022-09-09T03:10:24;3.22;;;1.55;;
45007;SDS011;30743;52.008;5.644;2022-09-09T03:12:50;3.10;;;1.52;;
45007;SDS011;30743;52.008;5.644;2022-09-09T03:15:17;2.40;;;1.40;;
45007;SDS011;30743;52.008;5.644;2022-09-09T03:17:42;2.55;;;1.38;;
45007;SDS011;30743;52.008;5.644;2022-09-09T03:20:09;2.38;;;1.70;;
45007;SDS011;30743;52.008;5.644;2022-09-09T03:22:35;2.83;;;1.60;;
45007;SDS011;30743;52.008;5.644;2022-09-09T03:25:01;3.05;;;1.75;;
45007;SDS011;30743;52.008;5.644;2022-09-09T03:27:27;3.00;;;1.88;;
45007;SDS011;30743;52.008;5.644;2022-09-09T03:29:55;5.50;;;1.80;;
45007;SDS011;30743;52.008;5.644;2022-09-09T03:32:21;2.80;;;1.90;;
45007;SDS011;30743;52.008;5.644;2022-09-09T03:34:47;3.13;;;1.80;;
45007;SDS011;30743;52.008;5.644;2022-09-09T03:37:14;3.67;;;2.22;;
45007;SDS011;30743;52.008;5.644;2022-09-09T03:39:42;3.45;;;2.00;;
45007;SDS011;30743;52.008;5.644;2022-09-09T03:42:08;3.00;;;1.80;;
45007;SDS011;30743;52.008;5.644;2022-09-09T03:44:35;4.75;;;2.25;;
45007;SDS011;30743;52.008;5.644;2022-09-09T03:47:00;2.08;;;1.58;;
45007;SDS011;30743;52.008;5.644;2022-09-09T03:49:29;4.82;;;2.20;;
45007;SDS011;30743;52.008;5.644;2022-09-09T03:51:55;4.95;;;1.98;;
45007;SDS011;30743;52.008;5.644;2022-09-09T03:54:23;4.07;;;1.83;;
45007;SDS011;30743;52.008;5.644;2022-09-09T03:56:49;3.08;;;1.80;;
45007;SDS011;30743;52.008;5.644;2022-09-09T03:59:15;4.22;;;1.92;;
45007;SDS011;30743;52.008;5.644;2022-09-09T04:01:40;3.05;;;1.75;;
45007;SDS011;30743;52.008;5.644;2022-09-09T04:04:06;3.33;;;1.90;;
45007;SDS011;30743;52.008;5.644;2022-09-09T04:06:32;4.57;;;1.63;;
45007;SDS011;30743;52.008;5.644;2022-09-09T04:08:58;5.38;;;2.08;;
45007;SDS011;30743;52.008;5.644;2022-09-09T04:11:24;3.58;;;1.75;;
45007;SDS011;30743;52.008;5.644;2022-09-09T04:13:50;3.97;;;2.28;;
45007;SDS011;30743;52.008;5.644;2022-09-09T04:16:15;2.20;;;1.70;;
45007;SDS011;30743;52.008;5.644;2022-09-09T04:18:41;4.85;;;1.80;;
45007;SDS011;30743;52.008;5.644;2022-09-09T04:21:08;2.30;;;1.80;;
45007;SDS011;30743;52.008;5.644;2022-09-09T04:23:36;3.70;;;1.85;;
45007;SDS011;30743;52.008;5.644;2022-09-09T04:26:03;4.47;;;1.70;;
45007;SDS011;30743;52.008;5.644;2022-09-09T04:28:30;3.40;;;1.85;;
45007;SDS011;30743;52.008;5.644;2022-09-09T04:31:03;3.53;;;1.45;;
45007;SDS011;30743;52.008;5.644;2022-09-09T04:33:30;3.90;;;1.63;;
45007;SDS011;30743;52.008;5.644;2022-09-09T04:35:56;4.57;;;2.05;;
45007;SDS011;30743;52.008;5.644;2022-09-09T04:38:22;3.25;;;1.95;;
45007;SDS011;30743;52.008;5.644;2022-09-09T04:40:48;7.57;;;2.17;;
45007;SDS011;30743;52.008;5.644;2022-09-09T04:43:19;3.58;;;1.58;;
45007;SDS011;30743;52.008;5.644;2022-09-09T04:45:49;3.28;;;1.40;;
45007;SDS011;30743;52.008;5.644;2022-09-09T04:48:18;3.40;;;1.60;;
45007;SDS011;30743;52.008;5.644;2022-09-09T04:50:53;3.50;;;1.80;;
45007;SDS011;30743;52.008;5.644;2022-09-09T04:53:24;2.90;;;1.73;;
45007;SDS011;30743;52.008;5.644;2022-09-09T04:55:52;7.28;;;1.90;;
45007;SDS011;30743;52.008;5.644;2022-09-09T04:58:31;4.05;;;1.70;;
45007;SDS011;30743;52.008;5.644;2022-09-09T05:01:08;4.53;;;1.90;;
45007;SDS011;30743;52.008;5.644;2022-09-09T05:03:48;5.40;;;1.92;;
45007;SDS011;30743;52.008;5.644;2022-09-09T05:06:14;2.65;;;1.90;;
45007;SDS011;30743;52.008;5.644;2022-09-09T05:08:44;3.15;;;2.10;;
45007;SDS011;30743;52.008;5.644;2022-09-09T05:11:13;3.25;;;2.03;;
45007;SDS011;30743;52.008;5.644;2022-09-09T05:13:44;4.10;;;1.75;;
45007;SDS011;30743;52.008;5.644;2022-09-09T05:16:10;5.20;;;2.05;;
45007;SDS011;30743;52.008;5.644;2022-09-09T05:18:38;6.70;;;2.10;;
45007;SDS011;30743;52.008;5.644;2022-09-09T05:21:04;3.47;;;1.92;;
45007;SDS011;30743;52.008;5.644;2022-09-09T05:23:29;4.97;;;2.20;;
45007;SDS011;30743;52.008;5.644;2022-09-09T05:25:56;7.57;;;2.45;;
45007;SDS011;30743;52.008;5.644;2022-09-09T05:28:23;4.85;;;2.17;;
45007;SDS011;30743;52.008;5.644;2022-09-09T05:31:00;4.55;;;2.10;;
45007;SDS011;30743;52.008;5.644;2022-09-09T05:33:32;6.40;;;2.15;;
45007;SDS011;30743;52.008;5.644;2022-09-09T05:35:59;3.35;;;1.80;;
45007;SDS011;30743;52.008;5.644;2022-09-09T05:38:28;10.63;;;2.35;;
45007;SDS011;30743;52.008;5.644;2022-09-09T05:40:54;6.22;;;2.03;;
45007;SDS011;30743;52.008;5.644;2022-09-09T05:43:21;3.05;;;2.03;;
45007;SDS011;30743;52.008;5.644;2022-09-09T05:45:47;6.78;;;2.20;;
45007;SDS011;30743;52.008;5.644;2022-09-09T05:48:16;3.88;;;2.00;;
45007;SDS011;30743;52.008;5.644;2022-09-09T05:50:42;3.30;;;1.83;;
45007;SDS011;30743;52.008;5.644;2022-09-09T05:53:09;7.60;;;2.63;;
45007;SDS011;30743;52.008;5.644;2022-09-09T05:55:35;7.63;;;2.45;;
45007;SDS011;30743;52.008;5.644;2022-09-09T05:58:01;7.40;;;2.50;;
45007;SDS011;30743;52.008;5.644;2022-09-09T06:00:26;6.50;;;2.72;;
45007;SDS011;30743;52.008;5.644;2022-09-09T06:02:52;3.80;;;2.40;;
45007;SDS011;30743;52.008;5.644;2022-09-09T06:05:18;5.88;;;2.80;;
45007;SDS011;30743;52.008;5.644;2022-09-09T06:07:44;6.47;;;3.13;;
45007;SDS011;30743;52.008;5.644;2022-09-09T06:10:10;7.53;;;2.40;;
45007;SDS011;30743;52.008;5.644;2022-09-09T06:12:38;5.50;;;2.13;;
45007;SDS011;30743;52.008;5.644;2022-09-09T06:15:04;4.45;;;2.40;;
45007;SDS011;30743;52.008;5.644;2022-09-09T06:17:30;8.65;;;3.00;;
45007;SDS011;30743;52.008;5.644;2022-09-09T06:19:56;6.90;;;2.72;;
45007;SDS011;30743;52.008;5.644;2022-09-09T06:22:21;4.20;;;1.85;;
45007;SDS011;30743;52.008;5.644;2022-09-09T06:24:47;7.00;;;1.90;;
45007;SDS011;30743;52.008;5.644;2022-09-09T06:27:13;6.20;;;1.88;;
45007;SDS011;30743;52.008;5.644;2022-09-09T06:29:38;7.32;;;1.90;;
45007;SDS011;30743;52.008;5.644;2022-09-09T06:32:04;5.75;;;2.15;;
45007;SDS011;30743;52.008;5.644;2022-09-09T06:34:30;6.18;;;2.38;;
45007;SDS011;30743;52.008;5.644;2022-09-09T06:36:55;5.55;;;1.95;;
45007;SDS011;30743;52.008;5.644;2022-09-09T06:39:22;7.78;;;2.25;;
45007;SDS011;30743;52.008;5.644;2022-09-09T06:41:48;3.75;;;1.67;;
45007;SDS011;30743;52.008;5.644;2022-09-09T06:44:14;5.07;;;1.98;;
45007;SDS011;30743;52.008;5.644;2022-09-09T06:46:40;3.90;;;1.75;;
45007;SDS011;30743;52.008;5.644;2022-09-09T06:49:06;5.57;;;1.40;;
45007;SDS011;30743;52.008;5.644;2022-09-09T06:51:33;3.75;;;1.55;;
45007;SDS011;30743;52.008;5.644;2022-09-09T06:54:00;5.63;;;1.83;;
45007;SDS011;30743;52.008;5.644;2022-09-09T06:56:34;3.80;;;1.30;;
45007;SDS011;30743;52.008;5.644;2022-09-09T06:59:01;5.10;;;1.70;;
45007;SDS011;30743;52.008;5.644;2022-09-09T07:01:32;4.82;;;1.85;;
45007;SDS011;30743;52.008;5.644;2022-09-09T07:04:00;4.47;;;1.90;;
45007;SDS011;30743;52.008;5.644;2022-09-09T07:06:30;4.50;;;1.77;;
45007;SDS011;30743;52.008;5.644;2022-09-09T07:08:58;6.53;;;1.83;;
45007;SDS011;30743;52.008;5.644;2022-09-09T07:11:26;6.20;;;1.70;;
45007;SDS011;30743;52.008;5.644;2022-09-09T07:13:54;3.53;;;1.33;;
45007;SDS011;30743;52.008;5.644;2022-09-09T07:16:22;5.70;;;2.15;;
45007;SDS011;30743;52.008;5.644;2022-09-09T07:18:49;2.88;;;1.20;;
45007;SDS011;30743;52.008;5.644;2022-09-09T07:21:15;7.30;;;1.70;;
45007;SDS011;30743;52.008;5.644;2022-09-09T07:23:41;6.32;;;1.50;;
45007;SDS011;30743;52.008;5.644;2022-09-09T07:26:08;4.25;;;1.33;;
45007;SDS011;30743;52.008;5.644;2022-09-09T07:28:38;4.80;;;1.33;;
45007;SDS011;30743;52.008;5.644;2022-09-09T07:31:05;5.40;;;1.80;;
45007;SDS011;30743;52.008;5.644;2022-09-09T07:33:33;7.35;;;1.38;;
45007;SDS011;30743;52.008;5.644;2022-09-09T07:36:06;4.03;;;1.42;;
45007;SDS011;30743;52.008;5.644;2022-09-09T07:38:46;6.43;;;1.85;;
45007;SDS011;30743;52.008;5.644;2022-09-09T07:41:15;5.85;;;1.70;;
45007;SDS011;30743;52.008;5.644;2022-09-09T07:43:43;6.85;;;1.95;;
45007;SDS011;30743;52.008;5.644;2022-09-09T07:46:10;6.47;;;1.63;;
45007;SDS011;30743;52.008;5.644;2022-09-09T07:48:37;5.47;;;1.75;;
45007;SDS011;30743;52.008;5.644;2022-09-09T07:53:37;8.02;;;1.90;;
45007;SDS011;30743;52.008;5.644;2022-09-09T07:56:07;4.50;;;1.38;;
45007;SDS011;30743;52.008;5.644;2022-09-09T07:58:35;6.43;;;1.55;;
45007;SDS011;30743;52.008;5.644;2022-09-09T08:01:12;7.93;;;1.67;;
45007;SDS011;30743;52.008;5.644;2022-09-09T08:03:42;4.93;;;1.75;;
45007;SDS011;30743;52.008;5.644;2022-09-09T08:06:09;9.60;;;1.88;;
45007;SDS011;30743;52.008;5.644;2022-09-09T08:08:36;4.90;;;1.60;;
45007;SDS011;30743;52.008;5.644;2022-09-09T08:11:07;5.78;;;1.60;;
45007;SDS011;30743;52.008;5.644;2022-09-09T08:13:36;4.75;;;1.60;;
45007;SDS011;30743;52.008;5.644;2022-09-09T08:16:03;5.57;;;1.92;;
45007;SDS011;30743;52.008;5.644;2022-09-09T08:18:39;7.60;;;1.80;;
45007;SDS011;30743;52.008;5.644;2022-09-09T08:21:06;5.57;;;1.75;;
45007;SDS011;30743;52.008;5.644;2022-09-09T08:23:34;5.88;;;1.40;;
45007;SDS011;30743;52.008;5.644;2022-09-09T08:26:03;4.03;;;1.10;;
45007;SDS011;30743;52.008;5.644;2022-09-09T08:28:35;7.50;;;1.85;;
45007;SDS011;30743;52.008;5.644;2022-09-09T08:31:12;7.32;;;2.05;;
45007;SDS011;30743;52.008;5.644;2022-09-09T08:33:43;6.82;;;2.08;;
45007;SDS011;30743;52.008;5.644;2022-09-09T08:36:11;6.68;;;1.60;;
45007;SDS011;30743;52.008;5.644;2022-09-09T08:38:46;4.43;;;2.03;;
45007;SDS011;30743;52.008;5.644;2022-09-09T08:41:18;8.00;;;1.65;;
45007;SDS011;30743;52.008;5.644;2022-09-09T08:49:39;4.68;;;1.60;;
45007;SDS011;30743;52.008;5.644;2022-09-09T08:52:25;5.35;;;1.30;;
45007;SDS011;30743;52.008;5.644;2022-09-09T08:54:59;6.05;;;2.17;;
45007;SDS011;30743;52.008;5.644;2022-09-09T08:57:35;5.07;;;1.02;;
45007;SDS011;30743;52.008;5.644;2022-09-09T09:00:01;7.63;;;1.40;;
45007;SDS011;30743;52.008;5.644;2022-09-09T09:05:19;3.13;;;1.02;;
45007;SDS011;30743;52.008;5.644;2022-09-09T09:10:50;5.93;;;1.30;;
45007;SDS011;30743;52.008;5.644;2022-09-09T09:13:27;5.80;;;1.98;;
45007;SDS011;30743;52.008;5.644;2022-09-09T09:15:58;4.18;;;1.40;;
45007;SDS011;30743;52.008;5.644;2022-09-09T09:18:31;4.63;;;1.60;;
45007;SDS011;30743;52.008;5.644;2022-09-09T09:21:11;5.40;;;1.45;;
45007;SDS011;30743;52.008;5.644;2022-09-09T09:23:56;4.47;;;1.40;;
45007;SDS011;30743;52.008;5.644;2022-09-09T09:26:28;3.10;;;1.10;;
45007;SDS011;30743;52.008;5.644;2022-09-09T09:28:57;4.10;;;1.15;;
45007;SDS011;30743;52.008;5.644;2022-09-09T09:31:24;7.32;;;1.45;;
45007;SDS011;30743;52.008;5.644;2022-09-09T09:36:18;5.60;;;1.30;;
45007;SDS011;30743;52.008;5.644;2022-09-09T09:38:56;7.28;;;1.42;;
45007;SDS011;30743;52.008;5.644;2022-09-09T09:41:38;6.15;;;1.10;;
45007;SDS011;30743;52.008;5.644;2022-09-09T09:44:18;4.57;;;1.00;;
45007;SDS011;30743;52.008;5.644;2022-09-09T09:46:48;3.65;;;1.00;;
45007;SDS011;30743;52.008;5.644;2022-09-09T09:49:14;5.00;;;1.30;;
45007;SDS011;30743;52.008;5.644;2022-09-09T09:51:39;3.60;;;1.15;;
45007;SDS011;30743;52.008;5.644;2022-09-09T09:56:46;5.10;;;1.15;;
45007;SDS011;30743;52.008;5.644;2022-09-09T09:59:19;4.10;;;1.33;;
45007;SDS011;30743;52.008;5.644;2022-09-09T10:01:45;3.63;;;1.10;;
45007;SDS011;30743;52.008;5.644;2022-09-09T10:04:22;5.57;;;1.20;;
45007;SDS011;30743;52.008;5.644;2022-09-09T10:06:49;4.60;;;1.10;;
45007;SDS011;30743;52.008;5.644;2022-09-09T10:09:25;3.30;;;1.20;;
45007;SDS011;30743;52.008;5.644;2022-09-09T10:12:11;6.43;;;1.30;;
45007;SDS011;30743;52.008;5.644;2022-09-09T10:28:59;4.70;;;1.23;;
45007;SDS011;30743;52.008;5.644;2022-09-09T10:31:47;7.35;;;1.42;;
45007;SDS011;30743;52.008;5.644;2022-09-09T10:34:40;5.90;;;1.48;;
45007;SDS011;30743;52.008;5.644;2022-09-09T10:37:18;4.07;;;1.10;;
45007;SDS011;30743;52.008;5.644;2022-09-09T10:39:48;5.22;;;1.30;;
45007;SDS011;30743;52.008;5.644;2022-09-09T10:42:23;4.20;;;1.40;;
45007;SDS011;30743;52.008;5.644;2022-09-09T10:45:15;3.50;;;1.20;;
45007;SDS011;30743;52.008;5.644;2022-09-09T10:47:47;5.23;;;1.70;;
45007;SDS011;30743;52.008;5.644;2022-09-09T10:56:13;4.30;;;1.83;;
45007;SDS011;30743;52.008;5.644;2022-09-09T10:58:53;4.13;;;1.85;;
45007;SDS011;30743;52.008;5.644;2022-09-09T11:01:36;7.32;;;2.63;;
45007;SDS011;30743;52.008;5.644;2022-09-09T11:04:22;6.60;;;2.40;;
45007;SDS011;30743;52.008;5.644;2022-09-09T11:06:54;6.78;;;2.30;;
45007;SDS011;30743;52.008;5.644;2022-09-09T11:09:25;7.30;;;2.33;;
45007;SDS011;30743;52.008;5.644;2022-09-09T11:11:56;8.00;;;2.20;;
45007;SDS011;30743;52.008;5.644;2022-09-09T11:14:31;4.28;;;1.73;;
45007;SDS011;30743;52.008;5.644;2022-09-09T11:17:02;5.95;;;1.55;;
45007;SDS011;30743;52.008;5.644;2022-09-09T11:19:38;5.88;;;1.58;;
45007;SDS011;30743;52.008;5.644;2022-09-09T11:22:14;5.70;;;1.58;;
45007;SDS011;30743;52.008;5.644;2022-09-09T11:24:53;10.20;;;1.90;;
45007;SDS011;30743;52.008;5.644;2022-09-09T11:40:40;3.13;;;1.80;;
45007;SDS011;30743;52.008;5.644;2022-09-09T11:45:37;4.72;;;1.75;;
45007;SDS011;30743;52.008;5.644;2022-09-09T11:48:05;4.50;;;1.48;;
45007;SDS011;30743;52.008;5.644;2022-09-09T11:50:46;7.38;;;1.88;;
45007;SDS011;30743;52.008;5.644;2022-09-09T11:53:28;6.47;;;1.35;;
45007;SDS011;30743;52.008;5.644;2022-09-09T11:56:02;4.05;;;1.20;;
45007;SDS011;30743;52.008;5.644;2022-09-09T11:58:32;3.63;;;1.10;;
45007;SDS011;30743;52.008;5.644;2022-09-09T12:01:12;3.33;;;1.25;;
45007;SDS011;30743;52.008;5.644;2022-09-09T12:08:39;3.00;;;1.25;;
45007;SDS011;30743;52.008;5.644;2022-09-09T12:11:07;1.65;;;0.90;;
45007;SDS011;30743;52.008;5.644;2022-09-09T12:13:33;2.38;;;1.30;;
45007;SDS011;30743;52.008;5.644;2022-09-09T12:15:59;1.90;;;1.27;;
45007;SDS011;30743;52.008;5.644;2022-09-09T12:18:34;5.68;;;1.40;;
45007;SDS011;30743;52.008;5.644;2022-09-09T12:24:00;4.80;;;1.17;;
45007;SDS011;30743;52.008;5.644;2022-09-09T12:26:51;6.07;;;2.05;;
45007;SDS011;30743;52.008;5.644;2022-09-09T12:29:51;4.55;;;1.27;;
45007;SDS011;30743;52.008;5.644;2022-09-09T12:32:25;3.25;;;1.48;;
45007;SDS011;30743;52.008;5.644;2022-09-09T12:37:52;7.37;;;1.40;;
45007;SDS011;30743;52.008;5.644;2022-09-09T12:40:26;4.43;;;1.73;;
45007;SDS011;30743;52.008;5.644;2022-09-09T12:42:58;5.75;;;1.33;;
45007;SDS011;30743;52.008;5.644;2022-09-09T12:45:25;4.38;;;1.50;;
45007;SDS011;30743;52.008;5.644;2022-09-09T12:48:00;5.07;;;1.83;;
45007;SDS011;30743;52.008;5.644;2022-09-09T12:50:32;3.70;;;1.35;;
45007;SDS011;30743;52.008;5.644;2022-09-09T12:55:29;2.50;;;1.10;;
45007;SDS011;30743;52.008;5.644;2022-09-09T12:57:58;4.57;;;1.30;;
45007;SDS011;30743;52.008;5.644;2022-09-09T13:00:29;2.10;;;0.90;;
45007;SDS011;30743;52.008;5.644;2022-09-09T13:02:56;4.57;;;1.10;;
45007;SDS011;30743;52.008;5.644;2022-09-09T13:05:25;3.55;;;1.20;;
45007;SDS011;30743;52.008;5.644;2022-09-09T13:08:05;4.85;;;1.20;;
45007;SDS011;30743;52.008;5.644;2022-09-09T13:10:35;5.25;;;1.13;;
45007;SDS011;30743;52.008;5.644;2022-09-09T13:13:14;3.85;;;1.38;;
45007;SDS011;30743;52.008;5.644;2022-09-09T13:15:55;4.20;;;1.10;;
45007;SDS011;30743;52.008;5.644;2022-09-09T13:18:23;2.83;;;1.10;;
45007;SDS011;30743;52.008;5.644;2022-09-09T13:20:53;3.30;;;1.38;;
45007;SDS011;30743;52.008;5.644;2022-09-09T13:23:19;2.50;;;1.10;;
45007;SDS011;30743;52.008;5.644;2022-09-09T13:25:53;2.72;;;1.10;;
45007;SDS011;30743;52.008;5.644;2022-09-09T13:28:24;2.92;;;1.25;;
45007;SDS011;30743;52.008;5.644;2022-09-09T13:31:04;2.85;;;1.52;;
45007;SDS011;30743;52.008;5.644;2022-09-09T13:33:44;3.50;;;1.05;;
45007;SDS011;30743;52.008;5.644;2022-09-09T13:36:10;2.67;;;1.40;;
45007;SDS011;30743;52.008;5.644;2022-09-09T13:38:38;2.83;;;0.95;;
45007;SDS011;30743;52.008;5.644;2022-09-09T13:41:21;4.15;;;1.40;;
45007;SDS011;30743;52.008;5.644;2022-09-09T13:43:49;6.15;;;1.20;;
45007;SDS011;30743;52.008;5.644;2022-09-09T13:51:35;2.95;;;1.20;;
45007;SDS011;30743;52.008;5.644;2022-09-09T13:54:02;3.25;;;1.10;;
45007;SDS011;30743;52.008;5.644;2022-09-09T13:56:30;3.33;;;1.27;;
45007;SDS011;30743;52.008;5.644;2022-09-09T13:58:56;4.93;;;1.15;;
45007;SDS011;30743;52.008;5.644;2022-09-09T14:01:23;3.55;;;0.93;;
45007;SDS011;30743;52.008;5.644;2022-09-09T14:03:48;4.43;;;1.20;;
45007;SDS011;30743;52.008;5.644;2022-09-09T14:06:14;6.05;;;1.20;;
45007;SDS011;30743;52.008;5.644;2022-09-09T14:08:39;4.78;;;1.08;;
45007;SDS011;30743;52.008;5.644;2022-09-09T14:11:05;3.40;;;1.10;;
45007;SDS011;30743;52.008;5.644;2022-09-09T14:13:35;1.80;;;0.82;;
45007;SDS011;30743;52.008;5.644;2022-09-09T14:16:02;1.90;;;0.80;;
45007;SDS011;30743;52.008;5.644;2022-09-09T14:18:28;2.47;;;0.77;;
45007;SDS011;30743;52.008;5.644;2022-09-09T14:20:54;2.25;;;0.80;;
45007;SDS011;30743;52.008;5.644;2022-09-09T14:23:19;2.60;;;1.10;;
45007;SDS011;30743;52.008;5.644;2022-09-09T14:25:47;1.85;;;1.00;;
45007;SDS011;30743;52.008;5.644;2022-09-09T14:28:14;2.85;;;1.13;;
45007;SDS011;30743;52.008;5.644;2022-09-09T14:30:40;3.15;;;1.15;;
45007;SDS011;30743;52.008;5.644;2022-09-09T14:33:07;3.33;;;0.90;;
45007;SDS011;30743;52.008;5.644;2022-09-09T14:35:35;2.30;;;1.23;;
45007;SDS011;30743;52.008;5.644;2022-09-09T14:38:01;3.00;;;1.20;;
45007;SDS011;30743;52.008;5.644;2022-09-09T14:40:28;3.25;;;1.25;;
45007;SDS011;30743;52.008;5.644;2022-09-09T14:42:53;2.40;;;1.23;;
45007;SDS011;30743;52.008;5.644;2022-09-09T14:45:20;6.47;;;1.20;;
45007;SDS011;30743;52.008;5.644;2022-09-09T14:47:46;3.25;;;1.25;;
45007;SDS011;30743;52.008;5.644;2022-09-09T14:50:11;2.80;;;1.40;;
45007;SDS011;30743;52.008;5.644;2022-09-09T14:52:37;2.83;;;1.30;;
45007;SDS011;30743;52.008;5.644;2022-09-09T14:55:03;4.47;;;1.42;;
45007;SDS011;30743;52.008;5.644;2022-09-09T14:57:29;3.40;;;1.17;;
45007;SDS011;30743;52.008;5.644;2022-09-09T14:59:55;3.20;;;1.17;;
45007;SDS011;30743;52.008;5.644;2022-09-09T15:02:21;4.22;;;1.50;;
45007;SDS011;30743;52.008;5.644;2022-09-09T15:04:47;3.60;;;1.20;;
45007;SDS011;30743;52.008;5.644;2022-09-09T15:07:14;5.45;;;1.55;;
45007;SDS011;30743;52.008;5.644;2022-09-09T15:09:41;2.40;;;1.10;;
45007;SDS011;30743;52.008;5.644;2022-09-09T15:12:07;3.03;;;1.38;;
45007;SDS011;30743;52.008;5.644;2022-09-09T15:14:33;5.00;;;1.55;;
45007;SDS011;30743;52.008;5.644;2022-09-09T15:16:59;3.05;;;1.45;;
45007;SDS011;30743;52.008;5.644;2022-09-09T15:19:24;3.40;;;1.70;;
45007;SDS011;30743;52.008;5.644;2022-09-09T15:21:50;2.88;;;1.25;;
45007;SDS011;30743;52.008;5.644;2022-09-09T15:24:15;5.90;;;1.55;;
45007;SDS011;30743;52.008;5.644;2022-09-09T15:26:41;2.80;;;1.33;;
45007;SDS011;30743;52.008;5.644;2022-09-09T15:29:06;3.22;;;1.65;;
45007;SDS011;30743;52.008;5.644;2022-09-09T15:31:33;3.08;;;1.40;;
45007;SDS011;30743;52.008;5.644;2022-09-09T15:34:03;4.93;;;1.52;;
45007;SDS011;30743;52.008;5.644;2022-09-09T15:38:57;2.15;;;1.10;;
45007;SDS011;30743;52.008;5.644;2022-09-09T15:41:23;3.03;;;1.27;;
45007;SDS011;30743;52.008;5.644;2022-09-09T15:43:50;5.25;;;1.20;;
45007;SDS011;30743;52.008;5.644;2022-09-09T15:48:43;3.92;;;1.80;;
45007;SDS011;30743;52.008;5.644;2022-09-09T15:51:09;3.42;;;1.52;;
45007;SDS011;30743;52.008;5.644;2022-09-09T15:53:35;1.73;;;0.80;;
45007;SDS011;30743;52.008;5.644;2022-09-09T15:56:04;3.45;;;1.30;;
45007;SDS011;30743;52.008;5.644;2022-09-09T15:58:31;2.47;;;1.10;;
45007;SDS011;30743;52.008;5.644;2022-09-09T16:03:36;1.58;;;1.20;;
45007;SDS011;30743;52.008;5.644;2022-09-09T16:06:03;3.63;;;1.30;;
45007;SDS011;30743;52.008;5.644;2022-09-09T16:08:35;3.55;;;0.93;;
45007;SDS011;30743;52.008;5.644;2022-09-09T16:11:10;3.83;;;1.10;;
45007;SDS011;30743;52.008;5.644;2022-09-09T16:13:40;2.40;;;0.93;;
45007;SDS011;30743;52.008;5.644;2022-09-09T16:16:08;1.35;;;0.65;;
45007;SDS011;30743;52.008;5.644;2022-09-09T16:18:44;1.77;;;0.80;;
45007;SDS011;30743;52.008;5.644;2022-09-09T16:21:13;2.22;;;0.77;;
45007;SDS011;30743;52.008;5.644;2022-09-09T16:23:40;1.23;;;0.57;;
45007;SDS011;30743;52.008;5.644;2022-09-09T16:26:06;2.45;;;0.80;;
45007;SDS011;30743;52.008;5.644;2022-09-09T16:28:33;2.75;;;0.80;;
45007;SDS011;30743;52.008;5.644;2022-09-09T16:30:58;1.95;;;0.80;;
45007;SDS011;30743;52.008;5.644;2022-09-09T16:33:29;2.53;;;0.75;;
45007;SDS011;30743;52.008;5.644;2022-09-09T16:35:55;1.85;;;0.80;;
45007;SDS011;30743;52.008;5.644;2022-09-09T16:38:20;1.42;;;0.60;;
45007;SDS011;30743;52.008;5.644;2022-09-09T16:40:46;0.65;;;0.60;;
45007;SDS011;30743;52.008;5.644;2022-09-09T16:43:12;1.73;;;0.70;;
45007;SDS011;30743;52.008;5.644;2022-09-09T16:45:42;2.05;;;0.73;;
45007;SDS011;30743;52.008;5.644;2022-09-09T16:48:08;2.53;;;0.70;;
45007;SDS011;30743;52.008;5.644;2022-09-09T16:50:34;1.75;;;0.65;;
45007;SDS011;30743;52.008;5.644;2022-09-09T16:52:59;1.70;;;0.75;;
45007;SDS011;30743;52.008;5.644;2022-09-09T16:55:27;2.60;;;0.90;;
45007;SDS011;30743;52.008;5.644;2022-09-09T16:57:53;2.00;;;0.90;;
45007;SDS011;30743;52.008;5.644;2022-09-09T17:00:18;1.77;;;0.93;;
45007;SDS011;30743;52.008;5.644;2022-09-09T17:02:44;3.22;;;1.00;;
45007;SDS011;30743;52.008;5.644;2022-09-09T17:05:10;2.60;;;1.00;;
45007;SDS011;30743;52.008;5.644;2022-09-09T17:07:36;2.60;;;1.10;;
45007;SDS011;30743;52.008;5.644;2022-09-09T17:10:03;2.83;;;1.13;;
45007;SDS011;30743;52.008;5.644;2022-09-09T17:12:30;1.75;;;0.90;;
45007;SDS011;30743;52.008;5.644;2022-09-09T17:14:57;2.08;;;1.10;;